createdAt,value
2023-05-08T00:04:11.897Z,100.00
2023-05-08T00:09:16.503Z,100.00
2023-05-08T00:14:19.695Z,100.00
2023-05-08T00:19:22.680Z,100.00
2023-05-08T00:24:27.018Z,100.00
2023-05-08T00:29:30.021Z,100.00
2023-05-08T00:34:33.245Z,100.00
2023-05-08T00:39:37.595Z,100.00
2023-05-08T00:44:41.330Z,100.00
2023-05-08T00:49:44.915Z,100.00
2023-05-08T00:54:50.535Z,100.00
2023-05-08T00:59:54.120Z,100.00
2023-05-08T01:04:58.046Z,100.00
2023-05-08T01:10:02.972Z,100.00
2023-05-08T01:15:17.010Z,100.00
2023-05-08T01:20:33.595Z,100.00
2023-05-08T01:25:58.390Z,100.00
2023-05-08T01:31:09.342Z,100.00
2023-05-08T01:36:21.806Z,100.00
2023-05-08T01:41:29.007Z,100.00
2023-05-08T01:46:34.139Z,100.00
2023-05-08T01:51:42.764Z,100.00
2023-05-08T01:56:49.016Z,100.00
2023-05-08T02:01:56.921Z,100.00
2023-05-08T02:07:02.180Z,100.00
2023-05-08T02:12:08.299Z,100.00
2023-05-08T02:17:13.824Z,100.00
2023-05-08T02:22:19.420Z,100.00
2023-05-08T02:27:24.141Z,100.00
2023-05-08T02:32:29.295Z,100.00
2023-05-08T02:37:35.265Z,100.00
2023-05-08T02:42:38.416Z,100.00
2023-05-08T02:47:48.805Z,100.00
2023-05-08T02:52:56.837Z,100.00
2023-05-08T02:58:09.193Z,100.00
2023-05-08T03:03:19.612Z,100.00
2023-05-08T03:08:28.980Z,100.00
2023-05-08T03:13:35.932Z,100.00
2023-05-08T03:18:48.141Z,100.00
2023-05-08T03:23:56.223Z,100.00
2023-05-08T03:29:00.903Z,100.00
2023-05-08T03:34:09.622Z,100.00
2023-05-08T03:39:14.763Z,100.00
2023-05-08T03:44:19.052Z,100.00
2023-05-08T03:49:25.240Z,100.00
2023-05-08T03:54:30.381Z,100.00
2023-05-08T03:59:44.038Z,100.00
2023-05-08T04:04:51.284Z,100.00
2023-05-08T04:10:04.847Z,100.00
2023-05-08T04:15:15.518Z,100.00
2023-05-08T04:20:23.397Z,100.00
2023-05-08T04:25:29.913Z,100.00
2023-05-08T04:30:33.448Z,100.00
2023-05-08T04:35:37.078Z,100.00
2023-05-08T04:40:41.763Z,100.00
2023-05-08T04:45:47.280Z,100.00
2023-05-08T04:50:54.016Z,100.00
2023-05-08T04:55:59.406Z,100.00
2023-05-08T05:01:03.841Z,100.00
2023-05-08T05:06:08.064Z,100.00
2023-05-08T05:11:12.582Z,100.00
2023-05-08T05:16:15.733Z,100.00
2023-05-08T05:21:18.957Z,100.00
2023-05-08T05:26:23.915Z,100.00
2023-05-08T05:31:27.255Z,100.00
2023-05-08T05:36:32.659Z,100.00
2023-05-08T05:41:37.357Z,100.00
2023-05-08T05:46:42.780Z,100.00
2023-05-08T05:51:49.608Z,100.00
2023-05-08T05:56:55.018Z,100.00
2023-05-08T06:01:58.155Z,100.00
2023-05-08T06:07:01.172Z,100.00
2023-05-08T06:12:06.650Z,100.00
2023-05-08T06:17:10.008Z,100.00
2023-05-08T06:22:13.139Z,100.00
2023-05-08T06:27:17.683Z,100.00
2023-05-08T06:32:21.276Z,100.00
2023-05-08T06:37:24.472Z,100.00
2023-05-08T06:42:28.887Z,100.00
2023-05-08T06:47:31.994Z,100.00
2023-05-08T06:52:35.011Z,100.00
2023-05-08T06:57:39.349Z,100.00
2023-05-08T07:02:42.359Z,100.00
2023-05-08T07:07:45.576Z,100.00
2023-05-08T07:12:52.864Z,100.00
2023-05-08T07:17:56.008Z,100.00
2023-05-08T07:22:59.100Z,100.00
2023-05-08T07:28:03.843Z,100.00
2023-05-08T07:33:06.919Z,100.00
2023-05-08T07:38:11.206Z,100.00
2023-05-08T07:43:15.558Z,100.00
2023-05-08T07:48:18.650Z,98.77
2023-05-08T07:53:21.878Z,95.45
2023-05-08T07:58:27.052Z,96.44
2023-05-08T08:03:30.563Z,95.65
2023-05-08T08:08:36.769Z,94.02
2023-05-08T08:13:41.085Z,94.26
2023-05-08T08:18:44.058Z,94.15
2023-05-08T08:23:47.219Z,92.17
2023-05-08T08:28:51.874Z,90.55
2023-05-08T08:33:55.373Z,87.47
2023-05-08T08:38:58.468Z,86.38
2023-05-08T08:44:02.935Z,85.52
2023-05-08T08:49:08.977Z,85.57
2023-05-08T08:54:17.505Z,85.24
2023-05-08T08:59:24.815Z,85.04
2023-05-08T09:04:29.698Z,83.25
2023-05-08T09:09:36.106Z,83.04
2023-05-08T09:14:40.492Z,81.33
2023-05-08T09:19:44.932Z,81.83
2023-05-08T09:24:59.435Z,79.98
2023-05-08T09:30:06.136Z,82.25
2023-05-08T09:35:11.352Z,81.46
2023-05-08T09:40:18.916Z,82.40
2023-05-08T09:45:30.140Z,82.04
2023-05-08T09:50:33.628Z,83.66
2023-05-08T09:55:48.332Z,84.11
2023-05-08T10:00:52.738Z,82.56
2023-05-08T10:05:55.941Z,82.07
2023-05-08T10:11:14.947Z,80.34
2023-05-08T10:16:20.173Z,79.62
2023-05-08T10:21:24.795Z,81.16
2023-05-08T10:26:32.611Z,79.36
2023-05-08T10:31:42.244Z,78.68
2023-05-08T10:36:47.401Z,80.56
2023-05-08T10:41:51.518Z,79.22
2023-05-08T10:47:01.588Z,79.41
2023-05-08T10:52:17.578Z,79.76
2023-05-08T10:57:21.007Z,77.69
2023-05-08T11:02:30.390Z,75.52
2023-05-08T11:07:54.566Z,72.52
2023-05-08T11:12:59.094Z,74.58
2023-05-08T11:18:05.377Z,70.84
2023-05-08T11:23:23.888Z,71.40
2023-05-08T11:28:26.926Z,71.18
2023-05-08T11:33:38.047Z,69.98
2023-05-08T11:38:43.614Z,71.78
2023-05-08T11:44:16.688Z,67.00
2023-05-08T11:49:25.973Z,71.17
2023-05-08T11:54:32.014Z,71.10
2023-05-08T11:59:37.214Z,70.65
2023-05-08T12:04:48.516Z,67.21
2023-05-08T12:09:52.471Z,68.39
2023-05-08T12:14:55.839Z,71.72
2023-05-08T12:20:11.255Z,69.10
2023-05-08T12:25:15.426Z,71.89
2023-05-08T12:30:19.482Z,70.50
2023-05-08T12:35:24.342Z,72.63
2023-05-08T12:40:28.960Z,73.54
2023-05-08T12:45:36.906Z,72.56
2023-05-08T12:50:42.791Z,72.74
2023-05-08T12:55:53.080Z,69.38
2023-05-08T13:01:07.511Z,69.76
2023-05-08T13:06:22.677Z,71.78
2023-05-08T13:11:34.326Z,70.21
2023-05-08T13:16:47.848Z,70.80
2023-05-08T13:21:52.928Z,73.99
2023-05-08T13:26:56.155Z,71.15
2023-05-08T13:31:59.447Z,73.20
2023-05-08T13:37:03.940Z,72.51
2023-05-08T13:42:07.110Z,72.55
2023-05-08T13:47:11.107Z,72.79
2023-05-08T13:52:15.585Z,71.50
2023-05-08T13:57:18.912Z,70.29
2023-05-08T14:02:22.073Z,72.85
2023-05-08T14:07:28.219Z,73.46
2023-05-08T14:12:33.399Z,73.36
2023-05-08T14:17:36.733Z,74.08
2023-05-08T14:22:41.567Z,75.06
2023-05-08T14:27:44.626Z,76.56
2023-05-08T14:32:47.737Z,73.54
2023-05-08T14:37:53.310Z,76.16
2023-05-08T14:42:56.295Z,76.24
2023-05-08T14:47:59.387Z,72.21
2023-05-08T14:53:03.984Z,71.76
2023-05-08T14:58:09.504Z,73.31
2023-05-08T15:03:15.956Z,71.99
2023-05-08T15:08:20.669Z,70.85
2023-05-08T15:13:23.677Z,72.63
2023-05-08T15:18:28.535Z,73.45
2023-05-08T15:23:32.953Z,71.92
2023-05-08T15:28:36.562Z,72.15
2023-05-08T15:33:44.571Z,73.55
2023-05-08T15:38:53.962Z,72.66
2023-05-08T15:43:57.177Z,73.90
2023-05-08T15:49:02.573Z,74.15
2023-05-08T15:54:07.730Z,74.17
2023-05-08T15:59:10.938Z,73.29
2023-05-08T16:04:14.498Z,75.44
2023-05-08T16:09:19.073Z,75.86
2023-05-08T16:14:22.186Z,74.99
2023-05-08T16:19:25.229Z,73.80
2023-05-08T16:24:30.019Z,74.19
2023-05-08T16:29:33.428Z,73.21
2023-05-08T16:34:36.789Z,75.13
2023-05-08T16:39:41.287Z,76.45
2023-05-08T16:44:44.289Z,78.08
2023-05-08T16:49:47.486Z,78.48
2023-05-08T16:54:52.126Z,79.92
2023-05-08T16:59:55.255Z,80.48
2023-05-08T17:04:58.594Z,82.73
2023-05-08T17:10:03.212Z,83.84
2023-05-08T17:15:07.537Z,84.92
2023-05-08T17:20:13.262Z,84.56
2023-05-08T17:25:17.997Z,84.36
2023-05-08T17:30:20.962Z,84.22
2023-05-08T17:35:24.301Z,85.63
2023-05-08T17:40:28.955Z,85.78
2023-05-08T17:45:33.527Z,86.15
2023-05-08T17:50:39.541Z,86.70
2023-05-08T17:55:44.497Z,86.61
2023-05-08T18:00:47.617Z,87.00
2023-05-08T18:05:50.936Z,87.29
2023-05-08T18:10:56.686Z,87.50
2023-05-08T18:16:01.093Z,87.91
2023-05-08T18:21:04.402Z,87.92
2023-05-08T18:26:08.941Z,88.47
2023-05-08T18:31:12.231Z,88.76
2023-05-08T18:36:15.392Z,88.68
2023-05-08T18:41:19.900Z,89.42
2023-05-08T18:46:23.059Z,89.32
2023-05-08T18:51:26.093Z,89.40
2023-05-08T18:56:30.740Z,89.73
2023-05-08T19:01:35.696Z,89.74
2023-05-08T19:06:38.953Z,90.64
2023-05-08T19:11:44.017Z,91.48
2023-05-08T19:16:51.667Z,92.05
2023-05-08T19:21:54.773Z,92.27
2023-05-08T19:26:59.425Z,92.94
2023-05-08T19:32:04.466Z,93.03
2023-05-08T19:37:07.569Z,94.55
2023-05-08T19:42:14.235Z,94.44
2023-05-08T19:47:17.652Z,94.18
2023-05-08T19:52:20.937Z,95.46
2023-05-08T19:57:25.203Z,98.36
2023-05-08T20:02:28.336Z,97.59
2023-05-08T20:07:31.405Z,96.25
2023-05-08T20:12:38.064Z,96.88
2023-05-08T20:17:41.153Z,97.07
2023-05-08T20:22:44.160Z,95.43
2023-05-08T20:27:48.551Z,96.16
2023-05-08T20:32:51.699Z,96.58
2023-05-08T20:37:54.753Z,96.85
2023-05-08T20:42:59.410Z,96.16
2023-05-08T20:48:06.366Z,96.32
2023-05-08T20:53:17.114Z,97.00
2023-05-08T20:58:24.549Z,97.18
2023-05-08T21:03:27.944Z,97.02
2023-05-08T21:08:32.292Z,97.47
2023-05-08T21:13:39.948Z,96.94
2023-05-08T21:18:43.032Z,97.50
2023-05-08T21:23:46.209Z,97.67
2023-05-08T21:28:52.394Z,98.60
2023-05-08T21:33:55.570Z,98.18
2023-05-08T21:38:58.694Z,98.60
2023-05-08T21:44:05.789Z,99.28
2023-05-08T21:49:09.192Z,98.37
2023-05-08T21:54:12.528Z,98.45
2023-05-08T21:59:18.588Z,98.57
2023-05-08T22:04:21.749Z,99.04
2023-05-08T22:09:25.071Z,98.90
2023-05-08T22:14:30.895Z,98.05
2023-05-08T22:19:35.315Z,99.46
2023-05-08T22:24:38.749Z,99.73
2023-05-08T22:29:43.236Z,99.25
2023-05-08T22:34:49.903Z,99.53
2023-05-08T22:39:53.183Z,98.32
2023-05-08T22:44:58.003Z,97.69
2023-05-08T22:50:01.148Z,98.22
2023-05-08T22:55:06.690Z,99.42
2023-05-08T23:00:12.774Z,97.56
2023-05-08T23:05:16.027Z,96.51
2023-05-08T23:10:19.409Z,97.79
2023-05-08T23:15:23.960Z,99.69
2023-05-08T23:20:27.222Z,99.78
2023-05-08T23:25:30.273Z,99.22
2023-05-08T23:30:34.641Z,100.00
2023-05-08T23:35:37.738Z,100.00
2023-05-08T23:40:40.708Z,100.00
2023-05-08T23:45:45.168Z,100.00
2023-05-08T23:50:50.482Z,100.00
2023-05-08T23:55:53.519Z,99.45
